Monterey Peninsula Airport
KMRY : now visible

Airfield :











YOU CAN JOIN US ON...

 
LOGIN :

Register | Disclaimer

   EN    FR    IT 

 









Legend :    VFR   Marginal VFR   IFR   Intensive IFR   Very Intensive IFR
Visi :
Ceiling :
>= 8 km
>= 3000ft
5 to 8 km
1000 to 3000 ft
1500m to 5 km
500 to 1000 ft
800 to 1500m
200 to 500 ft
< 800m
< 200 ft
Symbols :   Thunderstorms  Fog  Heavy snow  Heavy precipitations  Wind > 20 kt






- Airport Elevation : 257 ft
- IATA code : MRY


KMRY - Monterey Peninsula

CURRENT METAR :
  • 061854Z 36004KT 10SM CLR 12/06 A3043 RMK AO2 SLP318 T01170061

EXPIRED METARs :
  • 061754Z 14004KT 10SM CLR 11/06 A3042 RMK AO2 SLP314 T01060056 10106 20039 51007
  • 061654Z 09003KT 10SM CLR 09/06 A3041 RMK AO2 SLP312 T00890061

TAF KMRY
Valid from the 06 at 18:00 until the 07 at 18:00 UTC


061720Z 0618/0718 VRB05KT P6SM SKC
FM062100 31009KT P6SM SKC
FM070200 VRB04KT P6SM SKC
FM070600 12008KT P6SM SKC
FM071000 10006KT P6SM SCT250
KZOA FIR / North America



MET'MAP, your aeronautical weather chart ! - Copyright ORBIFLY December 2007 - Disclaimer

ORBIFLY MET'MAP TEAM :

Programming & Development : Alexandra Zaïnal
Original concept : Baudouin d'Aumeries
Technical & hardware support : Manuel Goepfert
Assistance : Marc-Olivier Méhu




SOURCES & CREDITS :

   NOAA       Earth
Advisory